YXHG weather

Gold Coast University Hospital Helipad
Gold Coast, Queensland, Australia

Public forecast

Using degrees Celsius for public forecast. Weather courtesy of forecast.io.

Closest aviation weather report (METAR) to Gold Coast University Hospital Helipad

Closest report is Gold Coast Airport, 13.9 nm (25.8 km) SSE. Retrieved 2020/06/03 18:30 UTC (18 minutes ago):

YBCG 031830Z AUTO 23009KT 9999 // BKN043 BKN056 14/05 Q1025

Closest aviation forecast (TAF) to Gold Coast University Hospital Helipad

Closest forecast is Gold Coast Airport, 13.9 nm (25.8 km) SSE. Retrieved 2020/06/03 18:00 UTC (48 minutes ago):

TAF YBCG 031705Z 0318/0418 20010KT 9999 SCT045 FM032300 17015G25KT 9999 SCT030 FM040800 20008KT 9999 -SHRA SCT030 SCT050